HPD weather

Park Plaza I Heliport
Cuajimalpa, Ciudad de México, Mexico

Public forecast

Using degrees Celsius for public forecast. Weather courtesy of forecast.io.

Closest aviation weather report (METAR) to Park Plaza I Heliport

Closest report is Licenciado Benito Juarez International Airport, 11.5 nm (21.2 km) ENE. Retrieved 2020/02/26 21:42 UTC (51 minutes ago):

MMMX 262142Z 17012KT 8SM SCT025 24/02 A3019 NOSIG RMK 8/200 HZY ISOL AC BLDU N NE

Closest aviation forecast (TAF) to Park Plaza I Heliport

Closest forecast is Licenciado Benito Juarez International Airport, 11.5 nm (21.2 km) ENE. Retrieved 2020/02/26 18:00 UTC (5 hours ago):

TAF COR MMMX 261955Z 2618/2724 34010KT P6SM SKC TX24/2621Z TN08/2712Z FM262000 23012KT P6SM SCT025 FM270300 36010KT P6SM SCT020 FM270900 04010KT 5SM HZ OVC015 TEMPO 2712/2716 2SM BR FM271600 06010KT 5SM HZ SCT020